Time;durP1;ratioP1;P1;durP2;ratioP2;P2;SDS_P1;SDS_P2;PMS_P1;PMS_P2;Temp;Humidity;BMP_temperature;BMP_pressure;BME280_temperature;BME280_humidity;BME280_pressure;Samples;Min_cycle;Max_cycle;Signal;HPM_P1;HPM_P2
2021/09/27 00:02:06;;;;;;;31.27;13.55;;;;;;;15.44;100.00;101476.16;5165176;28;20307;-73
2021/09/27 00:04:37;;;;;;;20.42;11.88;;;;;;;15.53;100.00;101478.63;5177336;28;20177;-73
2021/09/27 00:07:07;;;;;;;22.85;12.43;;;;;;;15.63;100.00;101469.41;5158621;28;20034;-73
2021/09/27 00:09:38;;;;;;;24.90;11.85;;;;;;;15.61;100.00;101469.56;5176191;28;20024;-73
2021/09/27 00:12:10;;;;;;;19.35;12.32;;;;;;;15.54;100.00;101471.34;5161938;28;20022;-73
2021/09/27 00:14:41;;;;;;;21.95;12.15;;;;;;;15.46;100.00;101469.56;5161930;28;20042;-73
2021/09/27 00:17:12;;;;;;;21.83;11.68;;;;;;;15.39;100.00;101471.31;5161749;28;20026;-73
2021/09/27 00:19:42;;;;;;;27.42;11.65;;;;;;;15.34;100.00;101467.47;5161420;28;20026;-73
2021/09/27 00:22:13;;;;;;;24.77;12.80;;;;;;;15.28;100.00;101475.28;5161374;28;20344;-73
2021/09/27 00:24:43;;;;;;;28.55;13.10;;;;;;;15.24;100.00;101468.56;5168433;28;20054;-73
2021/09/27 00:27:14;;;;;;;22.48;11.85;;;;;;;15.20;100.00;101469.09;5181851;28;20029;-74
2021/09/27 00:29:44;;;;;;;24.45;12.23;;;;;;;15.11;100.00;101471.06;5181860;28;20026;-73
2021/09/27 00:32:15;;;;;;;26.05;13.18;;;;;;;15.08;100.00;101473.28;5166952;28;20050;-74
2021/09/27 00:34:45;;;;;;;24.80;12.68;;;;;;;15.04;100.00;101470.09;5169894;28;20026;-73
2021/09/27 00:37:16;;;;;;;23.25;11.73;;;;;;;14.99;100.00;101473.31;5178998;28;20045;-73
2021/09/27 00:39:46;;;;;;;27.38;12.68;;;;;;;14.95;100.00;101479.25;5161986;28;20105;-73
2021/09/27 00:42:17;;;;;;;21.15;12.07;;;;;;;14.89;100.00;101471.88;5176253;28;20026;-73
2021/09/27 00:44:48;;;;;;;29.50;13.70;;;;;;;14.84;100.00;101461.59;5170665;28;20026;-73
2021/09/27 00:47:18;;;;;;;25.48;13.38;;;;;;;14.78;100.00;101451.53;5166055;28;20030;-73
2021/09/27 00:49:49;;;;;;;25.38;13.38;;;;;;;14.75;100.00;101457.28;5168844;28;20030;-74
2021/09/27 00:52:20;;;;;;;25.55;13.05;;;;;;;14.67;100.00;101450.09;5161167;28;20026;-73
2021/09/27 00:54:50;;;;;;;19.90;11.48;;;;;;;14.58;100.00;101453.84;5175307;28;20372;-73
2021/09/27 00:57:24;;;;;;;24.80;11.30;;;;;;;14.43;100.00;101445.63;5181660;28;20410;-74
2021/09/27 00:59:56;;;;;;;20.88;10.57;;;;;;;14.32;100.00;101448.72;5165908;28;20403;-73
2021/09/27 01:02:27;;;;;;;23.35;12.32;;;;;;;14.24;100.00;101448.75;5161407;28;20108;-73
2021/09/27 01:04:57;;;;;;;20.88;11.27;;;;;;;14.16;100.00;101446.09;5165151;28;20028;-73
2021/09/27 01:07:31;;;;;;;22.63;11.77;;;;;;;14.06;100.00;101435.53;5181488;28;20025;-73
2021/09/27 01:10:02;;;;;;;19.50;11.90;;;;;;;14.00;100.00;101442.44;5181297;28;20036;-73
2021/09/27 01:12:32;;;;;;;23.48;11.77;;;;;;;13.96;100.00;101437.59;5168885;28;20030;-72
2021/09/27 01:15:22;;;;;;;22.85;10.18;;;;;;;13.89;100.00;101434.72;5174686;28;20069;-73
2021/09/27 01:18:17;;;;;;;21.27;11.70;;;;;;;13.82;100.00;101441.00;5161144;28;20046;-72
2021/09/27 01:21:14;;;;;;;19.70;9.50;;;;;;;13.73;100.00;101438.31;5174030;28;20033;-72
2021/09/27 01:24:21;;;;;;;14.00;7.40;;;;;;;13.65;100.00;101443.72;5174025;28;20042;-72
2021/09/27 01:27:46;;;;;;;14.60;8.35;;;;;;;13.58;100.00;101440.03;5169787;28;20026;-72
2021/09/27 01:30:39;;;;;;;15.73;8.60;;;;;;;13.52;100.00;101442.59;5172171;28;20022;-73
2021/09/27 01:33:18;;;;;;;17.13;10.60;;;;;;;13.43;100.00;101452.53;5160111;28;20053;-73
2021/09/27 01:36:13;;;;;;;20.02;11.40;;;;;;;13.42;100.00;101456.25;5177541;28;20498;-74
2021/09/27 01:39:22;;;;;;;25.98;13.35;;;;;;;13.42;100.00;101461.63;5162334;28;20029;-73
2021/09/27 01:42:31;;;;;;;26.20;12.80;;;;;;;13.38;100.00;101457.59;5149062;28;20026;-73
2021/09/27 01:45:10;;;;;;;22.50;10.30;;;;;;;13.34;100.00;101458.94;5139631;28;20037;-73
2021/09/27 01:47:51;;;;;;;19.95;12.27;;;;;;;13.32;100.00;101461.81;5167870;28;20036;-73
2021/09/27 01:50:24;;;;;;;22.02;11.40;;;;;;;13.34;100.00;101461.63;5163579;28;20030;-73
2021/09/27 01:53:13;;;;;;;19.92;11.05;;;;;;;13.30;100.00;101460.28;5160141;28;20053;-73
2021/09/27 01:56:01;;;;;;;20.92;10.38;;;;;;;13.27;100.00;101455.25;5160332;28;20539;-73
2021/09/27 01:58:59;;;;;;;21.27;9.77;;;;;;;13.22;100.00;101453.03;5160013;28;20053;-74
2021/09/27 02:01:42;;;;;;;21.50;8.25;;;;;;;13.14;100.00;101440.38;5160461;28;20458;-74
2021/09/27 02:04:30;;;;;;;36.38;6.38;;;;;;;13.07;100.00;101446.63;5159610;28;20105;-72
2021/09/27 02:07:04;;;;;;;73.13;7.85;;;;;;;13.00;100.00;101442.88;5180001;28;20037;-72
2021/09/27 02:09:52;;;;;;;10.65;5.97;;;;;;;12.91;100.00;101437.53;5166746;28;20109;-73
2021/09/27 02:12:34;;;;;;;11.32;5.97;;;;;;;12.84;100.00;101433.78;5179990;28;20114;-74
2021/09/27 02:15:19;;;;;;;10.35;6.88;;;;;;;12.80;100.00;101436.97;5180583;28;20026;-73
2021/09/27 02:17:56;;;;;;;9.75;6.72;;;;;;;12.77;100.00;101431.94;5147408;28;20054;-72
2021/09/27 02:20:31;;;;;;;22.08;10.15;;;;;;;12.79;100.00;101430.75;5170291;28;20028;-72
2021/09/27 02:23:14;;;;;;;34.53;13.23;;;;;;;12.86;100.00;101425.56;5179266;28;20113;-73
2021/09/27 02:25:45;;;;;;;18.73;10.07;;;;;;;12.93;100.00;101435.50;5166089;28;20018;-74
2021/09/27 02:28:19;;;;;;;56.97;7.43;;;;;;;12.96;100.00;101428.94;5167467;28;20036;-74
2021/09/27 02:30:55;;;;;;;16.63;7.78;;;;;;;12.98;100.00;101428.75;5179745;28;20572;-73
2021/09/27 02:33:34;;;;;;;12.63;7.22;;;;;;;12.98;100.00;101429.59;5169090;28;20400;-73
2021/09/27 02:36:16;;;;;;;14.85;8.52;;;;;;;13.00;100.00;101432.97;5159292;28;20015;-73
2021/09/27 02:39:10;;;;;;;19.42;10.15;;;;;;;13.00;100.00;101429.44;5160263;28;20430;-74
2021/09/27 02:41:59;;;;;;;32.88;15.35;;;;;;;13.00;100.00;101422.19;5178192;28;20369;-73
2021/09/27 02:44:30;;;;;;;26.00;12.85;;;;;;;13.02;100.00;101424.72;5175714;28;20253;-74
2021/09/27 02:47:05;;;;;;;15.00;6.85;;;;;;;12.94;100.00;101415.63;5179424;28;20026;-73
2021/09/27 02:49:44;;;;;;;51.53;9.27;;;;;;;12.85;100.00;101418.47;5179067;28;20022;-73
2021/09/27 02:52:17;;;;;;;89.45;15.25;;;;;;;12.80;100.00;101419.00;5179718;28;20057;-73
2021/09/27 02:54:52;;;;;;;54.80;19.45;;;;;;;12.81;100.00;101417.16;5165977;28;20030;-73
2021/09/27 02:57:47;;;;;;;30.25;14.30;;;;;;;12.87;100.00;101408.41;5179435;28;20026;-73
2021/09/27 03:00:51;;;;;;;39.13;16.60;;;;;;;12.90;100.00;101399.97;5178949;28;20060;-73
2021/09/27 03:03:38;;;;;;;42.72;15.73;;;;;;;12.89;100.00;101396.44;5162236;28;20021;-73
2021/09/27 03:06:08;;;;;;;29.17;13.77;;;;;;;12.89;100.00;101398.28;5172521;28;20021;-73
2021/09/27 03:08:39;;;;;;;39.38;16.38;;;;;;;12.88;100.00;101384.00;5178839;28;20034;-73
2021/09/27 03:11:21;;;;;;;49.97;22.05;;;;;;;13.11;100.00;101386.84;5164719;28;20084;-73
2021/09/27 03:14:23;;;;;;;50.65;20.25;;;;;;;13.16;100.00;101375.56;5168433;28;20459;-73
2021/09/27 03:17:28;;;;;;;48.95;22.10;;;;;;;13.24;100.00;101385.50;5171517;28;20416;-74
2021/09/27 03:20:34;;;;;;;55.75;22.83;;;;;;;13.34;100.00;101378.91;5158638;28;20052;-73
2021/09/27 03:23:31;;;;;;;56.53;22.80;;;;;;;13.44;100.00;101371.47;5177489;28;20026;-74
2021/09/27 03:26:33;;;;;;;;;;;;;;;13.49;100.00;101384.44;5166815;28;20026;-73
2021/09/27 03:29:09;;;;;;;58.03;23.88;;;;;;;13.61;100.00;101379.56;5135814;28;19964;-73
2021/09/27 03:31:54;;;;;;;65.80;27.08;;;;;;;13.61;100.00;101380.38;5158503;28;20106;-72
2021/09/27 03:34:43;;;;;;;62.78;25.65;;;;;;;13.61;100.00;101380.38;5171906;28;20034;-74
2021/09/27 03:37:25;;;;;;;59.15;25.52;;;;;;;13.62;100.00;101378.53;5159018;28;20446;-73
2021/09/27 03:40:14;;;;;;;59.28;22.10;;;;;;;13.61;100.00;101382.25;5158015;28;20352;-73
2021/09/27 03:43:02;;;;;;;69.75;24.73;;;;;;;13.54;100.00;101386.63;5177306;28;20021;-73
2021/09/27 03:46:02;;;;;;;54.30;23.17;;;;;;;13.48;100.00;101383.63;5163751;28;20099;-73
2021/09/27 03:48:37;;;;;;;55.03;23.80;;;;;;;13.46;100.00;101382.13;5162043;28;20030;-72
2021/09/27 03:51:23;;;;;;;56.47;22.83;;;;;;;13.46;100.00;101388.34;5162639;28;20439;-72
2021/09/27 03:54:00;;;;;;;52.55;22.05;;;;;;;13.45;100.00;101383.97;5168557;28;20053;-73
2021/09/27 03:56:46;;;;;;;59.80;22.40;;;;;;;13.45;100.00;101383.97;5182586;28;20028;-73
2021/09/27 03:59:46;;;;;;;67.53;26.35;;;;;;;13.46;100.00;101382.97;5172152;28;20041;-74
2021/09/27 04:03:07;;;;;;;55.00;24.38;;;;;;;13.52;100.00;101383.28;5162906;28;20030;-73
2021/09/27 04:05:52;;;;;;;61.97;25.90;;;;;;;13.50;100.00;101380.72;5127582;28;20402;-73
2021/09/27 04:08:34;;;;;;;59.90;23.17;;;;;;;13.51;100.00;101366.28;5174072;28;20088;-73
2021/09/27 04:11:11;;;;;;;71.30;26.80;;;;;;;13.55;100.00;101375.66;5169333;28;20328;-74
2021/09/27 04:14:07;;;;;;;54.28;20.23;;;;;;;13.51;100.00;101379.75;5182679;28;20033;-73
2021/09/27 04:16:45;;;;;;;58.28;24.60;;;;;;;13.46;100.00;101371.34;5175858;28;20027;-74
2021/09/27 04:19:26;;;;;;;64.95;26.00;;;;;;;13.47;100.00;101373.84;5161684;28;20041;-74
2021/09/27 04:22:12;;;;;;;72.57;28.13;;;;;;;13.54;100.00;101373.16;5172317;28;20040;-73
2021/09/27 04:24:47;;;;;;;67.82;27.70;;;;;;;13.60;100.00;101372.44;5181983;28;20029;-74
2021/09/27 04:27:30;;;;;;;68.73;27.23;;;;;;;13.62;100.00;101378.53;5169244;28;20061;-73
2021/09/27 04:30:22;;;;;;;62.65;25.52;;;;;;;13.60;100.00;101375.16;5171212;28;20142;-74
2021/09/27 04:33:27;;;;;;;69.60;27.77;;;;;;;13.57;100.00;101364.72;5161921;28;20027;-73
2021/09/27 04:36:00;;;;;;;71.20;28.40;;;;;;;13.56;100.00;101357.66;5174462;28;20043;-73
2021/09/27 04:38:32;;;;;;;71.78;28.27;;;;;;;13.57;100.00;101356.66;5162211;28;20026;-73
2021/09/27 04:41:21;;;;;;;63.25;25.77;;;;;;;13.56;100.00;101363.06;5178568;28;20049;-73
2021/09/27 04:44:01;;;;;;;58.72;24.35;;;;;;;13.53;100.00;101366.94;5180776;28;20058;-74
2021/09/27 04:46:44;;;;;;;73.18;26.45;;;;;;;13.49;100.00;101357.50;5170242;28;20117;-73
2021/09/27 04:49:37;;;;;;;73.60;27.83;;;;;;;13.54;100.00;101359.69;5161305;28;20080;-72
2021/09/27 04:52:28;;;;;;;69.00;27.00;;;;;;;13.62;100.00;101357.81;5161341;28;20029;-72
2021/09/27 04:55:23;;;;;;;79.25;28.35;;;;;;;13.71;100.00;101350.53;5161042;28;20396;-71
2021/09/27 04:58:19;;;;;;;66.07;26.45;;;;;;;13.79;100.00;101345.09;5160538;28;20031;-72
2021/09/27 05:01:35;;;;;;;74.57;30.42;;;;;;;14.04;100.00;101350.38;5160525;28;20084;-71
2021/09/27 05:04:30;;;;;;;73.85;28.60;;;;;;;14.16;100.00;101344.41;5078886;29;20569;-71
2021/09/27 05:07:28;;;;;;;76.43;31.10;;;;;;;14.29;100.00;101337.56;5180989;28;20399;-71
2021/09/27 05:10:04;;;;;;;80.97;32.22;;;;;;;14.34;100.00;101329.78;5179044;28;20483;-72
2021/09/27 05:13:13;;;;;;;68.00;29.35;;;;;;;14.34;100.00;101325.22;5181249;28;20095;-72
2021/09/27 05:15:47;;;;;;;74.63;29.30;;;;;;;14.33;100.00;101328.09;5123161;28;20046;-72
2021/09/27 05:18:43;;;;;;;73.15;30.40;;;;;;;14.36;100.00;101325.06;5174185;28;20034;-72
2021/09/27 05:21:28;;;;;;;67.13;29.10;;;;;;;14.37;100.00;101332.97;5136464;28;20407;-71
2021/09/27 05:24:25;;;;;;;69.25;28.77;;;;;;;14.37;100.00;101329.44;5160734;28;20022;-71
2021/09/27 05:27:07;;;;;;;65.95;27.55;;;;;;;14.36;100.00;101320.50;5180609;28;20026;-71
2021/09/27 05:29:56;;;;;;;72.22;27.58;;;;;;;14.37;100.00;101326.75;5173556;28;20077;-71
2021/09/27 05:32:42;;;;;;;76.50;29.63;;;;;;;14.39;100.00;101327.38;5159893;28;20105;-71
2021/09/27 05:35:16;;;;;;;;;;;;;;;14.43;100.00;101324.16;5173353;28;20026;-72
2021/09/27 05:38:13;;;;;;;60.42;26.77;;;;;;;14.43;100.00;101321.44;5180383;28;19913;-71
2021/09/27 05:41:07;;;;;;;71.72;28.42;;;;;;;14.43;100.00;101324.16;5166804;28;20456;-71
2021/09/27 05:43:45;;;;;;;60.33;27.65;;;;;;;14.46;100.00;101323.81;5170750;28;20321;-71
2021/09/27 05:46:40;;;;;;;64.88;27.73;;;;;;;14.50;100.00;101321.59;5171187;28;20393;-71
2021/09/27 05:49:27;;;;;;;63.58;27.88;;;;;;;14.55;100.00;101326.44;5179456;28;20033;-71
2021/09/27 05:52:07;;;;;;;58.30;28.00;;;;;;;14.61;100.00;101332.00;5179982;28;20263;-71
2021/09/27 05:54:46;;;;;;;55.95;26.80;;;;;;;14.65;100.00;101333.28;5169029;28;20033;-71
2021/09/27 05:57:52;;;;;;;61.72;26.67;;;;;;;14.75;100.00;101319.53;5172784;28;20441;-71
2021/09/27 06:00:51;;;;;;;56.05;26.20;;;;;;;14.85;100.00;101316.59;5164780;28;20459;-71
2021/09/27 06:03:31;;;;;;;55.20;25.35;;;;;;;14.93;100.00;101313.81;5176473;28;20384;-71
2021/09/27 06:06:26;;;;;;;52.10;24.65;;;;;;;15.02;100.00;101312.72;5171424;28;20053;-71
2021/09/27 06:09:23;;;;;;;46.70;23.05;;;;;;;15.09;100.00;101310.94;5173565;28;20038;-71
2021/09/27 06:12:02;;;;;;;46.63;23.17;;;;;;;15.12;100.00;101313.28;5166380;28;20133;-71
2021/09/27 06:14:35;;;;;;;41.33;22.23;;;;;;;15.18;100.00;101314.41;5179847;28;20041;-71
2021/09/27 06:17:36;;;;;;;45.38;22.13;;;;;;;15.26;100.00;101317.88;5179618;28;20034;-71
2021/09/27 06:20:15;;;;;;;39.45;20.63;;;;;;;15.28;100.00;101329.31;5179618;28;20438;-71
2021/09/27 06:23:01;;;;;;;42.42;22.05;;;;;;;15.34;100.00;101326.91;5179374;28;20053;-71
2021/09/27 06:25:39;;;;;;;46.38;22.73;;;;;;;15.39;100.00;101313.66;5179926;28;20098;-71
2021/09/27 06:28:44;;;;;;;35.53;18.98;;;;;;;15.43;100.00;101314.97;5179432;28;20061;-71
2021/09/27 06:31:23;;;;;;;41.72;20.55;;;;;;;15.50;100.00;101310.50;5161450;28;20030;-71
2021/09/27 06:34:04;;;;;;;38.10;19.92;;;;;;;15.53;100.00;101310.97;5159190;28;20038;-71
2021/09/27 06:36:35;;;;;;;38.30;20.65;;;;;;;15.61;100.00;101312.72;5159322;28;20026;-71
2021/09/27 06:39:14;;;;;;;34.95;18.45;;;;;;;15.64;100.00;101306.13;5161393;28;20038;-71
2021/09/27 06:41:48;;;;;;;34.40;17.77;;;;;;;15.69;100.00;101309.13;5179234;28;20034;-71
2021/09/27 06:44:19;;;;;;;31.40;17.48;;;;;;;15.74;100.00;101306.69;5172196;28;20033;-71
2021/09/27 06:46:53;;;;;;;30.60;16.58;;;;;;;15.79;100.00;101298.84;5171894;28;20038;-72
2021/09/27 06:49:24;;;;;;;31.15;16.77;;;;;;;15.87;100.00;101306.84;5167422;28;20022;-72
2021/09/27 06:51:55;;;;;;;30.67;15.30;;;;;;;15.94;100.00;101307.75;5178640;28;20792;-71
2021/09/27 06:54:26;;;;;;;27.63;16.20;;;;;;;16.00;100.00;101300.75;5169544;28;20237;-72
2021/09/27 06:56:57;;;;;;;21.77;14.43;;;;;;;16.08;100.00;101302.50;5159082;28;20038;-71
2021/09/27 06:59:28;;;;;;;28.38;14.63;;;;;;;16.22;100.00;101307.88;5158666;28;20518;-72
2021/09/27 07:01:58;;;;;;;25.17;14.38;;;;;;;16.29;100.00;101295.22;5164399;28;20053;-72
2021/09/27 07:04:30;;;;;;;26.17;13.90;;;;;;;16.43;100.00;101295.38;5166356;28;20049;-71
2021/09/27 07:07:02;;;;;;;20.10;13.40;;;;;;;16.49;100.00;101302.72;5159101;28;20033;-72
2021/09/27 07:09:32;;;;;;;23.20;13.18;;;;;;;16.51;100.00;101303.34;5177320;28;20026;-72
2021/09/27 07:12:03;;;;;;;28.40;12.85;;;;;;;16.53;100.00;101301.31;5178929;28;20033;-72
2021/09/27 07:14:33;;;;;;;22.65;13.52;;;;;;;16.50;100.00;101307.09;5176736;28;20022;-72
2021/09/27 07:17:04;;;;;;;25.52;12.75;;;;;;;16.47;100.00;101308.34;5158654;28;20512;-71
2021/09/27 07:19:35;;;;;;;24.02;13.10;;;;;;;16.45;100.00;101310.38;5161113;28;20052;-72
2021/09/27 07:22:08;;;;;;;23.73;13.65;;;;;;;16.48;100.00;101309.19;5178785;28;20040;-72
2021/09/27 07:24:38;;;;;;;27.45;13.35;;;;;;;16.50;100.00;101309.81;5173638;28;20033;-72
2021/09/27 07:27:09;;;;;;;25.25;13.82;;;;;;;16.51;100.00;101314.19;5158515;28;20022;-71
2021/09/27 07:29:39;;;;;;;20.67;12.52;;;;;;;16.57;100.00;101303.44;5177469;28;20056;-72
2021/09/27 07:32:10;;;;;;;21.60;11.73;;;;;;;16.63;100.00;101307.22;5178691;28;20030;-71
2021/09/27 07:34:40;;;;;;;21.50;12.27;;;;;;;16.66;100.00;101301.41;5178503;28;20049;-71
2021/09/27 07:37:11;;;;;;;23.73;11.85;;;;;;;16.70;100.00;101309.97;5177139;28;20098;-72
2021/09/27 07:39:42;;;;;;;21.55;11.23;;;;;;;16.76;100.00;101303.81;5157650;28;20428;-72
2021/09/27 07:42:12;;;;;;;19.75;11.38;;;;;;;16.83;100.00;101297.44;5174288;28;20793;-72
2021/09/27 07:44:42;;;;;;;20.10;11.57;;;;;;;16.91;100.00;101303.72;5168418;28;20022;-72
2021/09/27 07:47:13;;;;;;;15.88;9.90;;;;;;;16.98;100.00;101300.03;5176059;28;20029;-72
2021/09/27 07:49:43;;;;;;;14.80;9.32;;;;;;;17.02;100.00;101301.31;5166649;28;20026;-71
2021/09/27 07:52:14;;;;;;;15.18;9.30;;;;;;;17.07;100.00;101295.31;5158279;28;20038;-71
2021/09/27 07:54:44;;;;;;;18.65;9.77;;;;;;;17.12;100.00;101300.13;5170665;28;20026;-72
2021/09/27 07:57:15;;;;;;;13.65;8.82;;;;;;;17.12;100.00;101298.28;5171809;28;20034;-72
2021/09/27 07:59:46;;;;;;;16.88;9.02;;;;;;;17.17;100.00;101293.09;5158266;28;20022;-72
2021/09/27 08:02:18;;;;;;;13.73;8.60;;;;;;;17.16;100.00;101288.69;5178731;28;20038;-72
2021/09/27 08:04:49;;;;;;;15.48;8.25;;;;;;;17.22;100.00;101290.63;5162959;28;20026;-72
2021/09/27 08:07:21;;;;;;;17.10;8.65;;;;;;;17.31;100.00;101294.81;5159913;28;20026;-73
2021/09/27 08:09:51;;;;;;;14.75;7.78;;;;;;;17.42;100.00;101285.31;5164685;28;20025;-72
2021/09/27 08:12:22;;;;;;;11.07;6.75;;;;;;;17.50;100.00;101285.13;5167946;28;20402;-72
2021/09/27 08:14:54;;;;;;;10.93;5.97;;;;;;;17.69;100.00;101299.00;5162708;28;20290;-73
2021/09/27 08:17:24;;;;;;;10.43;6.40;;;;;;;17.83;100.00;101293.44;5165811;28;20146;-72
2021/09/27 08:19:56;;;;;;;7.55;5.28;;;;;;;17.93;100.00;101286.81;5177201;28;20030;-72
2021/09/27 08:22:27;;;;;;;9.18;5.18;;;;;;;18.15;100.00;101277.47;5165328;28;20101;-72
2021/09/27 08:24:58;;;;;;;10.43;5.60;;;;;;;18.25;100.00;101279.78;5170535;28;20298;-72
2021/09/27 08:27:28;;;;;;;8.95;5.78;;;;;;;18.24;100.00;101292.53;5158117;28;20027;-72
2021/09/27 08:29:59;;;;;;;8.80;5.35;;;;;;;18.24;100.00;101280.81;5166536;28;20037;-72
2021/09/27 08:32:29;;;;;;;8.82;5.30;;;;;;;18.34;100.00;101298.38;5165279;28;20022;-73
2021/09/27 08:35:00;;;;;;;8.43;5.13;;;;;;;18.60;100.00;101278.56;5161609;28;20038;-72
2021/09/27 08:37:30;;;;;;;9.05;5.80;;;;;;;18.91;100.00;101279.00;5148864;28;20026;-72
2021/09/27 08:40:01;;;;;;;9.98;5.03;;;;;;;19.06;100.00;101280.44;5181093;28;20033;-72
2021/09/27 08:42:39;;;;;;;7.80;4.53;;;;;;;19.08;100.00;101262.03;5179382;28;20026;-72
2021/09/27 08:45:20;;;;;;;5.93;3.83;;;;;;;19.30;100.00;101269.94;5167630;28;20472;-72
2021/09/27 08:48:19;;;;;;;6.35;4.50;;;;;;;19.19;100.00;101274.16;5161450;28;20037;-73
2021/09/27 08:50:50;;;;;;;7.63;4.00;;;;;;;19.18;100.00;101274.34;5160790;28;20030;-72
2021/09/27 08:53:32;;;;;;;9.98;4.20;;;;;;;18.77;100.00;101278.16;5161105;28;20030;-73
2021/09/27 08:56:26;;;;;;;6.05;4.22;;;;;;;18.47;100.00;101273.09;5160929;28;20048;-72
2021/09/27 08:59:16;;;;;;;5.40;4.25;;;;;;;18.24;100.00;101269.97;5154820;28;20416;-70
2021/09/27 09:02:05;;;;;;;10.00;4.53;;;;;;;18.03;100.00;101277.22;5164957;28;20084;-71
2021/09/27 09:05:02;;;;;;;8.57;4.40;;;;;;;17.98;100.00;101273.47;5168079;28;20073;-71
2021/09/27 09:07:36;;;;;;;7.43;4.60;;;;;;;17.96;100.00;101275.53;5177057;28;20088;-71
2021/09/27 09:10:08;;;;;;;9.55;4.65;;;;;;;18.01;100.00;101275.75;5175310;28;20022;-70
2021/09/27 09:12:47;;;;;;;12.20;4.03;;;;;;;18.12;100.00;101277.84;5173904;28;20396;-71
2021/09/27 09:15:26;;;;;;;9.15;4.03;;;;;;;18.04;100.00;101270.75;5160309;28;20499;-71
2021/09/27 09:18:09;;;;;;;6.97;4.03;;;;;;;18.09;100.00;101262.81;5174608;28;20022;-71
2021/09/27 09:20:45;;;;;;;8.73;4.70;;;;;;;18.09;100.00;101256.56;5172015;28;20021;-71
2021/09/27 09:23:32;;;;;;;11.90;4.22;;;;;;;18.27;100.00;101255.94;5161458;28;20050;-71
2021/09/27 09:26:10;;;;;;;7.50;4.00;;;;;;;18.43;100.00;101261.00;5173022;28;20026;-71
2021/09/27 09:28:43;;;;;;;6.55;4.25;;;;;;;18.36;100.00;101260.16;5171701;28;20503;-71
2021/09/27 09:31:33;;;;;;;6.47;3.85;;;;;;;18.37;100.00;101248.22;5161601;28;20101;-72
2021/09/27 09:34:28;;;;;;;5.35;4.15;;;;;;;18.27;100.00;101254.09;5173268;28;20107;-73
2021/09/27 09:37:06;;;;;;;11.05;4.15;;;;;;;18.32;100.00;101262.47;5172864;28;20069;-73
2021/09/27 09:39:42;;;;;;;6.32;3.83;;;;;;;18.28;100.00;101258.47;5159848;28;20126;-73
2021/09/27 09:42:15;;;;;;;7.68;4.07;;;;;;;18.29;100.00;101249.28;5171175;28;20061;-71
2021/09/27 09:44:51;;;;;;;7.22;3.88;;;;;;;18.42;100.00;101250.31;5170488;28;20498;-71
2021/09/27 09:47:27;;;;;;;5.97;3.28;;;;;;;18.41;100.00;101237.78;5161956;28;20034;-71
2021/09/27 09:49:57;;;;;;;7.55;3.60;;;;;;;18.54;100.00;101237.81;5159435;28;20108;-71
2021/09/27 09:52:46;;;;;;;6.55;4.32;;;;;;;18.50;100.00;101234.66;5167243;28;20113;-71
2021/09/27 09:55:28;;;;;;;8.13;4.22;;;;;;;18.30;100.00;101233.81;5179704;28;20188;-71
2021/09/27 09:58:09;;;;;;;9.15;3.92;;;;;;;18.20;100.00;101242.38;5180246;28;20052;-71
2021/09/27 10:00:47;;;;;;;8.55;3.60;;;;;;;18.13;100.00;101246.97;5171741;28;20438;-71
2021/09/27 10:03:27;;;;;;;8.93;3.75;;;;;;;18.04;100.00;101248.19;5176066;28;20040;-71
2021/09/27 10:06:07;;;;;;;9.00;3.92;;;;;;;18.04;100.00;101256.34;5179965;28;20022;-71
2021/09/27 10:08:46;;;;;;;10.60;3.80;;;;;;;18.08;100.00;101261.16;5171946;28;20049;-71
2021/09/27 10:11:32;;;;;;;6.78;3.90;;;;;;;18.05;100.00;101252.59;5178114;28;20022;-71
2021/09/27 10:14:33;;;;;;;6.93;3.63;;;;;;;18.07;100.00;101250.47;5159502;28;20577;-71
2021/09/27 10:17:03;;;;;;;8.55;3.95;;;;;;;18.11;100.00;101246.31;5168791;28;20399;-71
2021/09/27 10:19:40;;;;;;;6.82;3.75;;;;;;;18.11;100.00;101236.28;5176175;28;20038;-71
2021/09/27 10:22:24;;;;;;;8.98;3.95;;;;;;;18.01;100.00;101232.31;5170307;28;20022;-71
2021/09/27 10:24:58;;;;;;;6.72;3.88;;;;;;;18.03;100.00;101228.38;5166689;28;20026;-71
2021/09/27 10:27:44;;;;;;;4.78;3.40;;;;;;;18.06;100.00;101227.94;5178094;28;20400;-71
2021/09/27 10:30:34;;;;;;;9.10;3.50;;;;;;;18.14;100.00;101226.09;5170469;28;20025;-71
2021/09/27 10:33:17;;;;;;;5.82;3.17;;;;;;;18.23;100.00;101217.53;5172238;28;20399;-71
2021/09/27 10:36:03;;;;;;;8.43;3.70;;;;;;;18.25;100.00;101220.88;5171753;28;20034;-71
2021/09/27 10:38:41;;;;;;;7.30;3.60;;;;;;;18.30;100.00;101212.94;5171559;28;20030;-71
2021/09/27 10:41:24;;;;;;;8.45;3.85;;;;;;;18.34;100.00;101206.03;5179279;28;20098;-71
2021/09/27 10:43:58;;;;;;;6.43;3.33;;;;;;;18.36;100.00;101200.38;5175279;28;20503;-70
2021/09/27 10:46:35;;;;;;;10.30;3.67;;;;;;;18.40;100.00;101214.41;5170609;28;20018;-71
2021/09/27 10:49:13;;;;;;;8.95;3.60;;;;;;;18.43;100.00;101201.25;5159204;28;20098;-70
2021/09/27 10:51:50;;;;;;;7.30;3.85;;;;;;;18.60;100.00;101204.34;5158610;28;20104;-71
2021/09/27 10:54:47;;;;;;;7.50;3.92;;;;;;;18.66;100.00;101203.50;5158264;28;20084;-71
2021/09/27 10:57:20;;;;;;;6.82;3.75;;;;;;;18.63;100.00;101212.09;5157769;28;20484;-71
2021/09/27 11:00:03;;;;;;;6.43;3.70;;;;;;;18.68;100.00;101206.03;5170015;28;20391;-71
2021/09/27 11:02:42;;;;;;;5.85;3.03;;;;;;;18.74;100.00;101206.06;5178166;28;20034;-71
2021/09/27 11:05:33;;;;;;;9.27;3.67;;;;;;;18.80;100.00;101210.63;5158887;28;20022;-71
2021/09/27 11:08:11;;;;;;;9.60;3.90;;;;;;;18.81;100.00;101209.59;5170588;28;20444;-71
2021/09/27 11:10:50;;;;;;;5.53;3.13;;;;;;;18.85;100.00;101194.53;5156861;28;20052;-71
2021/09/27 11:13:37;;;;;;;6.95;2.80;;;;;;;18.89;100.00;101193.06;5170457;28;20026;-71
2021/09/27 11:16:19;;;;;;;10.52;3.13;;;;;;;18.92;100.00;101201.81;5170051;28;20117;-71
2021/09/27 11:19:07;;;;;;;6.80;3.50;;;;;;;18.89;100.00;101189.50;5157640;28;20521;-71
2021/09/27 11:21:47;;;;;;;6.68;2.97;;;;;;;18.92;100.00;101196.38;5157535;28;20030;-71
2021/09/27 11:24:18;;;;;;;9.05;3.33;;;;;;;19.02;100.00;101203.03;5139987;28;20030;-71
2021/09/27 11:27:00;;;;;;;9.02;3.45;;;;;;;18.98;100.00;101201.81;5166950;28;20479;-71
2021/09/27 11:29:52;;;;;;;6.50;3.22;;;;;;;19.00;100.00;101202.44;5177294;28;20037;-71
2021/09/27 11:32:22;;;;;;;4.20;2.88;;;;;;;19.05;100.00;101199.91;5164555;28;20102;-71
2021/09/27 11:34:52;;;;;;;8.57;3.25;;;;;;;19.00;100.00;101207.03;5168092;28;20030;-71
2021/09/27 11:37:33;;;;;;;11.15;3.83;;;;;;;18.97;100.00;101197.41;5156999;28;20459;-71
2021/09/27 11:40:06;;;;;;;11.80;3.53;;;;;;;18.92;100.00;101199.94;5157402;28;20037;-72
2021/09/27 11:42:43;;;;;;;6.88;3.40;;;;;;;18.96;100.00;101194.91;5176605;28;20048;-72
2021/09/27 11:45:43;;;;;;;7.60;3.13;;;;;;;19.00;100.00;101188.84;5176242;28;20514;-72
2021/09/27 11:48:17;;;;;;;5.45;2.97;;;;;;;19.20;100.00;101194.22;5169705;28;20022;-72
2021/09/27 11:50:50;;;;;;;5.72;2.70;;;;;;;19.33;100.00;101206.94;5157356;28;20282;-72
2021/09/27 11:53:29;;;;;;;6.97;2.78;;;;;;;19.26;100.00;101198.78;5156757;28;20480;-71
2021/09/27 11:56:12;;;;;;;8.10;2.85;;;;;;;19.14;100.00;101201.34;5156924;28;20034;-72
2021/09/27 11:58:48;;;;;;;8.70;2.75;;;;;;;19.23;100.00;101211.97;5156939;28;20026;-72
2021/09/27 12:01:24;;;;;;;8.63;2.65;;;;;;;19.15;100.00;101203.00;5170681;28;20475;-72
2021/09/27 12:04:15;;;;;;;3.65;2.50;;;;;;;19.19;100.00;101200.72;5177145;28;20022;-72
2021/09/27 12:07:01;;;;;;;4.70;2.30;;;;;;;19.21;100.00;101214.09;5166744;28;20111;-72
2021/09/27 12:09:44;;;;;;;8.88;2.53;;;;;;;19.19;100.00;101208.88;5166299;28;20033;-72